sensor_id;sensor_type;location;lat;lon;timestamp;P1;durP1;ratioP1;P2;durP2;ratioP2
18322;SDS011;9287;49.456;11.064;2022-08-21T00:01:39;6.70;;;6.05;;
18322;SDS011;9287;49.456;11.064;2022-08-21T00:04:08;6.82;;;6.25;;
18322;SDS011;9287;49.456;11.064;2022-08-21T00:06:36;6.95;;;6.22;;
18322;SDS011;9287;49.456;11.064;2022-08-21T00:09:04;7.95;;;7.20;;
18322;SDS011;9287;49.456;11.064;2022-08-21T00:11:32;7.13;;;5.95;;
18322;SDS011;9287;49.456;11.064;2022-08-21T00:14:02;6.40;;;5.80;;
18322;SDS011;9287;49.456;11.064;2022-08-21T00:16:30;6.72;;;6.00;;
18322;SDS011;9287;49.456;11.064;2022-08-21T00:18:58;6.68;;;6.07;;
18322;SDS011;9287;49.456;11.064;2022-08-21T00:21:25;7.05;;;6.35;;
18322;SDS011;9287;49.456;11.064;2022-08-21T00:23:53;6.82;;;6.22;;
18322;SDS011;9287;49.456;11.064;2022-08-21T00:26:21;7.38;;;6.72;;
18322;SDS011;9287;49.456;11.064;2022-08-21T00:28:48;7.80;;;7.00;;
18322;SDS011;9287;49.456;11.064;2022-08-21T00:31:17;9.95;;;7.43;;
18322;SDS011;9287;49.456;11.064;2022-08-21T00:33:45;10.00;;;7.30;;
18322;SDS011;9287;49.456;11.064;2022-08-21T00:36:13;7.10;;;6.43;;
18322;SDS011;9287;49.456;11.064;2022-08-21T00:38:40;6.80;;;6.20;;
18322;SDS011;9287;49.456;11.064;2022-08-21T00:41:08;7.82;;;7.05;;
18322;SDS011;9287;49.456;11.064;2022-08-21T00:43:56;7.57;;;6.68;;
18322;SDS011;9287;49.456;11.064;2022-08-21T00:46:26;7.82;;;7.10;;
18322;SDS011;9287;49.456;11.064;2022-08-21T00:48:54;8.13;;;7.43;;
18322;SDS011;9287;49.456;11.064;2022-08-21T00:51:25;6.63;;;6.03;;
18322;SDS011;9287;49.456;11.064;2022-08-21T00:53:54;6.90;;;6.30;;
18322;SDS011;9287;49.456;11.064;2022-08-21T00:56:24;7.15;;;6.55;;
18322;SDS011;9287;49.456;11.064;2022-08-21T00:58:52;6.85;;;5.68;;
18322;SDS011;9287;49.456;11.064;2022-08-21T01:01:20;7.50;;;6.03;;
18322;SDS011;9287;49.456;11.064;2022-08-21T01:03:49;6.72;;;5.80;;
18322;SDS011;9287;49.456;11.064;2022-08-21T01:06:17;8.15;;;7.35;;
18322;SDS011;9287;49.456;11.064;2022-08-21T01:08:44;6.55;;;6.03;;
18322;SDS011;9287;49.456;11.064;2022-08-21T01:11:13;6.78;;;6.13;;
18322;SDS011;9287;49.456;11.064;2022-08-21T01:13:40;6.93;;;6.13;;
18322;SDS011;9287;49.456;11.064;2022-08-21T01:16:13;7.22;;;6.60;;
18322;SDS011;9287;49.456;11.064;2022-08-21T01:18:42;6.90;;;6.30;;
18322;SDS011;9287;49.456;11.064;2022-08-21T01:21:13;8.35;;;6.68;;
18322;SDS011;9287;49.456;11.064;2022-08-21T01:23:41;6.28;;;5.78;;
18322;SDS011;9287;49.456;11.064;2022-08-21T01:26:09;8.45;;;5.72;;
18322;SDS011;9287;49.456;11.064;2022-08-21T01:28:42;6.75;;;6.15;;
18322;SDS011;9287;49.456;11.064;2022-08-21T01:31:11;6.13;;;5.57;;
18322;SDS011;9287;49.456;11.064;2022-08-21T01:33:42;7.00;;;5.85;;
18322;SDS011;9287;49.456;11.064;2022-08-21T01:36:12;6.35;;;5.85;;
18322;SDS011;9287;49.456;11.064;2022-08-21T01:38:40;6.65;;;5.75;;
18322;SDS011;9287;49.456;11.064;2022-08-21T01:41:08;6.88;;;6.28;;
18322;SDS011;9287;49.456;11.064;2022-08-21T01:43:35;6.28;;;5.78;;
18322;SDS011;9287;49.456;11.064;2022-08-21T01:46:05;6.90;;;5.67;;
18322;SDS011;9287;49.456;11.064;2022-08-21T01:48:32;6.40;;;5.80;;
18322;SDS011;9287;49.456;11.064;2022-08-21T01:51:00;6.07;;;5.45;;
18322;SDS011;9287;49.456;11.064;2022-08-21T01:53:29;6.20;;;5.70;;
18322;SDS011;9287;49.456;11.064;2022-08-21T01:55:58;6.38;;;5.78;;
18322;SDS011;9287;49.456;11.064;2022-08-21T01:58:26;6.00;;;5.47;;
18322;SDS011;9287;49.456;11.064;2022-08-21T02:00:54;5.20;;;4.80;;
18322;SDS011;9287;49.456;11.064;2022-08-21T02:03:21;6.57;;;5.65;;
18322;SDS011;9287;49.456;11.064;2022-08-21T02:06:01;4.93;;;4.53;;
18322;SDS011;9287;49.456;11.064;2022-08-21T02:08:30;6.70;;;6.00;;
18322;SDS011;9287;49.456;11.064;2022-08-21T02:10:58;5.60;;;5.10;;
18322;SDS011;9287;49.456;11.064;2022-08-21T02:13:26;5.85;;;5.40;;
18322;SDS011;9287;49.456;11.064;2022-08-21T02:15:53;6.75;;;5.90;;
18322;SDS011;9287;49.456;11.064;2022-08-21T02:18:21;6.03;;;5.53;;
18322;SDS011;9287;49.456;11.064;2022-08-21T02:20:49;6.80;;;6.13;;
18322;SDS011;9287;49.456;11.064;2022-08-21T02:23:22;6.60;;;6.10;;
18322;SDS011;9287;49.456;11.064;2022-08-21T02:25:54;7.03;;;6.43;;
18322;SDS011;9287;49.456;11.064;2022-08-21T02:28:21;7.00;;;6.20;;
18322;SDS011;9287;49.456;11.064;2022-08-21T02:30:50;6.33;;;5.60;;
18322;SDS011;9287;49.456;11.064;2022-08-21T02:33:18;4.50;;;4.20;;
18322;SDS011;9287;49.456;11.064;2022-08-21T02:35:46;5.22;;;3.92;;
18322;SDS011;9287;49.456;11.064;2022-08-21T02:38:15;4.30;;;4.00;;
18322;SDS011;9287;49.456;11.064;2022-08-21T02:40:43;3.93;;;3.70;;
18322;SDS011;9287;49.456;11.064;2022-08-21T02:43:15;3.90;;;3.60;;
18322;SDS011;9287;49.456;11.064;2022-08-21T02:45:43;4.20;;;3.90;;
18322;SDS011;9287;49.456;11.064;2022-08-21T02:48:11;5.40;;;5.00;;
18322;SDS011;9287;49.456;11.064;2022-08-21T02:50:41;6.23;;;5.57;;
18322;SDS011;9287;49.456;11.064;2022-08-21T02:53:09;6.47;;;5.87;;
18322;SDS011;9287;49.456;11.064;2022-08-21T02:55:37;7.53;;;6.57;;
18322;SDS011;9287;49.456;11.064;2022-08-21T02:58:06;6.27;;;5.77;;
18322;SDS011;9287;49.456;11.064;2022-08-21T03:00:36;7.80;;;6.67;;
18322;SDS011;9287;49.456;11.064;2022-08-21T03:03:03;7.03;;;6.43;;
18322;SDS011;9287;49.456;11.064;2022-08-21T03:05:32;6.23;;;5.67;;
18322;SDS011;9287;49.456;11.064;2022-08-21T03:08:00;6.70;;;6.13;;
18322;SDS011;9287;49.456;11.064;2022-08-21T03:10:28;6.47;;;5.88;;
18322;SDS011;9287;49.456;11.064;2022-08-21T03:12:57;6.70;;;6.17;;
18322;SDS011;9287;49.456;11.064;2022-08-21T03:15:24;6.70;;;6.10;;
18322;SDS011;9287;49.456;11.064;2022-08-21T03:17:53;6.63;;;6.07;;
18322;SDS011;9287;49.456;11.064;2022-08-21T03:20:22;7.27;;;6.63;;
18322;SDS011;9287;49.456;11.064;2022-08-21T03:22:50;9.33;;;5.80;;
18322;SDS011;9287;49.456;11.064;2022-08-21T03:25:18;6.63;;;5.87;;
18322;SDS011;9287;49.456;11.064;2022-08-21T03:27:54;6.67;;;6.17;;
18322;SDS011;9287;49.456;11.064;2022-08-21T03:30:25;7.07;;;6.47;;
18322;SDS011;9287;49.456;11.064;2022-08-21T03:32:54;6.57;;;5.83;;
18322;SDS011;9287;49.456;11.064;2022-08-21T03:35:22;8.23;;;6.97;;
18322;SDS011;9287;49.456;11.064;2022-08-21T03:37:49;7.03;;;6.33;;
18322;SDS011;9287;49.456;11.064;2022-08-21T03:40:17;6.40;;;5.83;;
18322;SDS011;9287;49.456;11.064;2022-08-21T03:42:46;6.57;;;5.97;;
18322;SDS011;9287;49.456;11.064;2022-08-21T03:45:14;7.43;;;6.73;;
18322;SDS011;9287;49.456;11.064;2022-08-21T03:47:50;8.70;;;7.80;;
18322;SDS011;9287;49.456;11.064;2022-08-21T03:50:19;9.60;;;8.60;;
18322;SDS011;9287;49.456;11.064;2022-08-21T03:52:46;11.77;;;10.10;;
18322;SDS011;9287;49.456;11.064;2022-08-21T03:55:14;12.57;;;10.63;;
18322;SDS011;9287;49.456;11.064;2022-08-21T03:57:42;11.30;;;9.67;;
18322;SDS011;9287;49.456;11.064;2022-08-21T04:00:10;12.40;;;10.53;;
18322;SDS011;9287;49.456;11.064;2022-08-21T04:02:38;12.23;;;10.73;;
18322;SDS011;9287;49.456;11.064;2022-08-21T04:05:06;12.67;;;10.43;;
18322;SDS011;9287;49.456;11.064;2022-08-21T04:07:35;12.90;;;10.30;;
18322;SDS011;9287;49.456;11.064;2022-08-21T04:10:03;12.90;;;10.10;;
18322;SDS011;9287;49.456;11.064;2022-08-21T04:12:31;10.98;;;9.45;;
18322;SDS011;9287;49.456;11.064;2022-08-21T04:14:58;11.27;;;10.17;;
18322;SDS011;9287;49.456;11.064;2022-08-21T04:17:27;12.03;;;9.50;;
18322;SDS011;9287;49.456;11.064;2022-08-21T04:19:55;10.63;;;9.50;;
18322;SDS011;9287;49.456;11.064;2022-08-21T04:22:23;10.90;;;9.17;;
18322;SDS011;9287;49.456;11.064;2022-08-21T04:24:51;11.83;;;9.83;;
18322;SDS011;9287;49.456;11.064;2022-08-21T04:27:19;17.83;;;11.90;;
18322;SDS011;9287;49.456;11.064;2022-08-21T04:29:46;16.13;;;11.50;;
18322;SDS011;9287;49.456;11.064;2022-08-21T04:32:20;17.90;;;12.87;;
18322;SDS011;9287;49.456;11.064;2022-08-21T04:34:48;41.27;;;12.47;;
18322;SDS011;9287;49.456;11.064;2022-08-21T04:37:15;16.27;;;11.87;;
18322;SDS011;9287;49.456;11.064;2022-08-21T04:39:43;21.63;;;12.77;;
18322;SDS011;9287;49.456;11.064;2022-08-21T04:42:16;26.73;;;13.03;;
18322;SDS011;9287;49.456;11.064;2022-08-21T04:44:44;17.20;;;12.57;;
18322;SDS011;9287;49.456;11.064;2022-08-21T04:47:12;13.10;;;10.77;;
18322;SDS011;9287;49.456;11.064;2022-08-21T04:49:39;15.20;;;12.17;;
18322;SDS011;9287;49.456;11.064;2022-08-21T04:52:07;15.43;;;11.87;;
18322;SDS011;9287;49.456;11.064;2022-08-21T04:54:34;12.83;;;11.10;;
18322;SDS011;9287;49.456;11.064;2022-08-21T04:57:04;12.23;;;11.00;;
18322;SDS011;9287;49.456;11.064;2022-08-21T04:59:35;14.13;;;12.10;;
18322;SDS011;9287;49.456;11.064;2022-08-21T05:02:04;16.13;;;12.07;;
18322;SDS011;9287;49.456;11.064;2022-08-21T05:04:33;13.53;;;11.17;;
18322;SDS011;9287;49.456;11.064;2022-08-21T05:07:02;14.27;;;12.00;;
18322;SDS011;9287;49.456;11.064;2022-08-21T05:09:32;16.30;;;12.67;;
18322;SDS011;9287;49.456;11.064;2022-08-21T05:12:00;16.53;;;12.83;;
18322;SDS011;9287;49.456;11.064;2022-08-21T05:14:28;14.37;;;11.63;;
18322;SDS011;9287;49.456;11.064;2022-08-21T05:16:57;12.83;;;11.30;;
18322;SDS011;9287;49.456;11.064;2022-08-21T05:19:25;25.73;;;12.33;;
18322;SDS011;9287;49.456;11.064;2022-08-21T05:21:53;11.23;;;9.97;;
18322;SDS011;9287;49.456;11.064;2022-08-21T05:24:21;14.30;;;11.03;;
18322;SDS011;9287;49.456;11.064;2022-08-21T05:26:48;13.10;;;10.57;;
18322;SDS011;9287;49.456;11.064;2022-08-21T05:29:16;13.70;;;9.73;;
18322;SDS011;9287;49.456;11.064;2022-08-21T05:31:44;10.47;;;9.37;;
18322;SDS011;9287;49.456;11.064;2022-08-21T05:34:14;10.20;;;9.10;;
18322;SDS011;9287;49.456;11.064;2022-08-21T05:36:42;10.27;;;9.27;;
18322;SDS011;9287;49.456;11.064;2022-08-21T05:39:09;10.43;;;9.37;;
18322;SDS011;9287;49.456;11.064;2022-08-21T05:41:37;18.60;;;9.63;;
18322;SDS011;9287;49.456;11.064;2022-08-21T05:44:05;17.07;;;10.03;;
18322;SDS011;9287;49.456;11.064;2022-08-21T05:46:36;11.10;;;9.93;;
18322;SDS011;9287;49.456;11.064;2022-08-21T05:49:03;10.90;;;9.83;;
18322;SDS011;9287;49.456;11.064;2022-08-21T05:51:32;13.23;;;11.07;;
18322;SDS011;9287;49.456;11.064;2022-08-21T05:54:00;11.03;;;9.93;;
18322;SDS011;9287;49.456;11.064;2022-08-21T05:56:27;12.80;;;10.53;;
18322;SDS011;9287;49.456;11.064;2022-08-21T05:58:55;10.47;;;9.47;;
18322;SDS011;9287;49.456;11.064;2022-08-21T06:01:23;10.23;;;9.20;;
18322;SDS011;9287;49.456;11.064;2022-08-21T06:03:50;10.80;;;9.70;;
18322;SDS011;9287;49.456;11.064;2022-08-21T06:06:22;11.17;;;10.07;;
18322;SDS011;9287;49.456;11.064;2022-08-21T06:08:51;10.90;;;9.80;;
18322;SDS011;9287;49.456;11.064;2022-08-21T06:11:19;11.33;;;10.20;;
18322;SDS011;9287;49.456;11.064;2022-08-21T06:13:53;11.90;;;10.70;;
18322;SDS011;9287;49.456;11.064;2022-08-21T06:16:20;10.48;;;9.48;;
18322;SDS011;9287;49.456;11.064;2022-08-21T06:18:48;10.50;;;9.55;;
18322;SDS011;9287;49.456;11.064;2022-08-21T06:21:16;10.70;;;9.60;;
18322;SDS011;9287;49.456;11.064;2022-08-21T06:23:44;11.18;;;10.05;;
18322;SDS011;9287;49.456;11.064;2022-08-21T06:26:13;10.30;;;9.30;;
18322;SDS011;9287;49.456;11.064;2022-08-21T06:28:41;10.45;;;9.45;;
18322;SDS011;9287;49.456;11.064;2022-08-21T06:31:13;11.82;;;10.25;;
18322;SDS011;9287;49.456;11.064;2022-08-21T06:33:41;11.80;;;10.60;;
18322;SDS011;9287;49.456;11.064;2022-08-21T06:36:08;10.98;;;9.95;;
18322;SDS011;9287;49.456;11.064;2022-08-21T06:38:36;12.77;;;10.90;;
18322;SDS011;9287;49.456;11.064;2022-08-21T06:41:05;11.80;;;10.60;;
18322;SDS011;9287;49.456;11.064;2022-08-21T06:43:36;10.67;;;9.67;;
18322;SDS011;9287;49.456;11.064;2022-08-21T06:46:05;12.83;;;11.53;;
18322;SDS011;9287;49.456;11.064;2022-08-21T06:48:33;10.68;;;9.68;;
18322;SDS011;9287;49.456;11.064;2022-08-21T06:51:01;10.60;;;9.55;;
18322;SDS011;9287;49.456;11.064;2022-08-21T06:53:28;16.35;;;10.45;;
18322;SDS011;9287;49.456;11.064;2022-08-21T06:55:56;20.15;;;13.38;;
18322;SDS011;9287;49.456;11.064;2022-08-21T06:58:23;15.50;;;10.73;;
18322;SDS011;9287;49.456;11.064;2022-08-21T07:00:52;12.90;;;11.48;;
18322;SDS011;9287;49.456;11.064;2022-08-21T07:03:27;11.67;;;10.53;;
18322;SDS011;9287;49.456;11.064;2022-08-21T07:05:55;11.43;;;10.33;;
18322;SDS011;9287;49.456;11.064;2022-08-21T07:08:25;10.93;;;9.90;;
18322;SDS011;9287;49.456;11.064;2022-08-21T07:10:53;11.05;;;9.95;;
18322;SDS011;9287;49.456;11.064;2022-08-21T07:13:21;10.93;;;9.73;;
18322;SDS011;9287;49.456;11.064;2022-08-21T07:15:48;11.27;;;10.07;;
18322;SDS011;9287;49.456;11.064;2022-08-21T07:18:17;10.05;;;9.05;;
18322;SDS011;9287;49.456;11.064;2022-08-21T07:20:45;11.05;;;10.05;;
18322;SDS011;9287;49.456;11.064;2022-08-21T07:23:15;10.80;;;9.80;;
18322;SDS011;9287;49.456;11.064;2022-08-21T07:25:45;11.18;;;9.88;;
18322;SDS011;9287;49.456;11.064;2022-08-21T07:28:13;13.68;;;12.30;;
18322;SDS011;9287;49.456;11.064;2022-08-21T07:30:40;14.30;;;12.50;;
18322;SDS011;9287;49.456;11.064;2022-08-21T07:33:08;12.77;;;11.65;;
18322;SDS011;9287;49.456;11.064;2022-08-21T07:35:37;13.32;;;12.02;;
18322;SDS011;9287;49.456;11.064;2022-08-21T07:38:04;11.27;;;10.27;;
18322;SDS011;9287;49.456;11.064;2022-08-21T07:40:32;11.30;;;10.27;;
18322;SDS011;9287;49.456;11.064;2022-08-21T07:42:59;11.15;;;10.13;;
18322;SDS011;9287;49.456;11.064;2022-08-21T07:45:27;11.43;;;10.32;;
18322;SDS011;9287;49.456;11.064;2022-08-21T07:47:55;11.70;;;10.50;;
18322;SDS011;9287;49.456;11.064;2022-08-21T07:50:23;12.95;;;11.75;;
18322;SDS011;9287;49.456;11.064;2022-08-21T07:52:52;13.05;;;11.75;;
18322;SDS011;9287;49.456;11.064;2022-08-21T07:55:20;13.18;;;11.80;;
18322;SDS011;9287;49.456;11.064;2022-08-21T07:57:48;12.43;;;11.23;;
18322;SDS011;9287;49.456;11.064;2022-08-21T08:00:17;11.95;;;10.75;;
18322;SDS011;9287;49.456;11.064;2022-08-21T08:02:46;13.68;;;12.27;;
18322;SDS011;9287;49.456;11.064;2022-08-21T08:05:16;13.15;;;12.00;;
18322;SDS011;9287;49.456;11.064;2022-08-21T08:07:44;13.00;;;11.68;;
18322;SDS011;9287;49.456;11.064;2022-08-21T08:10:12;12.23;;;11.13;;
18322;SDS011;9287;49.456;11.064;2022-08-21T08:12:40;11.68;;;10.55;;
18322;SDS011;9287;49.456;11.064;2022-08-21T08:15:09;12.30;;;11.18;;
18322;SDS011;9287;49.456;11.064;2022-08-21T08:17:37;11.98;;;10.88;;
18322;SDS011;9287;49.456;11.064;2022-08-21T08:20:05;11.07;;;10.18;;
18322;SDS011;9287;49.456;11.064;2022-08-21T08:22:33;11.90;;;10.80;;
18322;SDS011;9287;49.456;11.064;2022-08-21T08:25:01;13.65;;;12.35;;
18322;SDS011;9287;49.456;11.064;2022-08-21T08:27:35;11.15;;;10.25;;
18322;SDS011;9287;49.456;11.064;2022-08-21T08:30:04;12.23;;;11.02;;
18322;SDS011;9287;49.456;11.064;2022-08-21T08:32:32;12.35;;;11.23;;
18322;SDS011;9287;49.456;11.064;2022-08-21T08:34:59;13.50;;;12.30;;
18322;SDS011;9287;49.456;11.064;2022-08-21T08:37:27;12.40;;;11.27;;
18322;SDS011;9287;49.456;11.064;2022-08-21T08:40:00;10.93;;;10.05;;
18322;SDS011;9287;49.456;11.064;2022-08-21T08:42:32;10.77;;;9.77;;
18322;SDS011;9287;49.456;11.064;2022-08-21T08:45:05;10.63;;;9.63;;
18322;SDS011;9287;49.456;11.064;2022-08-21T08:47:35;11.15;;;10.15;;
18322;SDS011;9287;49.456;11.064;2022-08-21T08:50:05;9.90;;;9.00;;
18322;SDS011;9287;49.456;11.064;2022-08-21T08:52:34;9.45;;;8.65;;
18322;SDS011;9287;49.456;11.064;2022-08-21T08:55:03;9.85;;;9.05;;
18322;SDS011;9287;49.456;11.064;2022-08-21T08:57:31;12.75;;;11.55;;
18322;SDS011;9287;49.456;11.064;2022-08-21T09:00:03;12.35;;;11.15;;
18322;SDS011;9287;49.456;11.064;2022-08-21T09:02:33;12.90;;;11.80;;
18322;SDS011;9287;49.456;11.064;2022-08-21T09:05:00;13.02;;;11.82;;
18322;SDS011;9287;49.456;11.064;2022-08-21T09:07:31;14.35;;;13.05;;
18322;SDS011;9287;49.456;11.064;2022-08-21T09:10:13;13.13;;;11.93;;
18322;SDS011;9287;49.456;11.064;2022-08-21T09:12:49;12.27;;;11.10;;
18322;SDS011;9287;49.456;11.064;2022-08-21T09:15:22;10.40;;;9.50;;
18322;SDS011;9287;49.456;11.064;2022-08-21T09:17:55;10.63;;;9.52;;
18322;SDS011;9287;49.456;11.064;2022-08-21T09:20:27;11.68;;;10.70;;
18322;SDS011;9287;49.456;11.064;2022-08-21T09:22:59;11.50;;;10.60;;
18322;SDS011;9287;49.456;11.064;2022-08-21T09:25:31;11.40;;;10.40;;
18322;SDS011;9287;49.456;11.064;2022-08-21T09:27:59;10.32;;;9.43;;
18322;SDS011;9287;49.456;11.064;2022-08-21T09:30:31;10.15;;;9.25;;
18322;SDS011;9287;49.456;11.064;2022-08-21T09:32:59;11.48;;;10.52;;
18322;SDS011;9287;49.456;11.064;2022-08-21T09:35:28;12.23;;;11.13;;
18322;SDS011;9287;49.456;11.064;2022-08-21T09:37:57;13.40;;;12.15;;
18322;SDS011;9287;49.456;11.064;2022-08-21T09:40:33;12.45;;;11.35;;
18322;SDS011;9287;49.456;11.064;2022-08-21T09:43:03;11.80;;;10.80;;
18322;SDS011;9287;49.456;11.064;2022-08-21T09:45:33;12.38;;;11.23;;
18322;SDS011;9287;49.456;11.064;2022-08-21T09:48:08;12.05;;;11.02;;
18322;SDS011;9287;49.456;11.064;2022-08-21T09:50:35;13.13;;;12.02;;
18322;SDS011;9287;49.456;11.064;2022-08-21T09:53:04;11.18;;;10.15;;
18322;SDS011;9287;49.456;11.064;2022-08-21T09:55:46;12.48;;;11.18;;
18322;SDS011;9287;49.456;11.064;2022-08-21T09:58:34;11.90;;;10.73;;
18322;SDS011;9287;49.456;11.064;2022-08-21T10:01:05;9.40;;;8.60;;
18322;SDS011;9287;49.456;11.064;2022-08-21T10:03:33;8.88;;;8.18;;
18322;SDS011;9287;49.456;11.064;2022-08-21T10:06:02;9.77;;;8.98;;
18322;SDS011;9287;49.456;11.064;2022-08-21T10:08:35;9.05;;;8.25;;
18322;SDS011;9287;49.456;11.064;2022-08-21T10:11:05;8.30;;;7.63;;
18322;SDS011;9287;49.456;11.064;2022-08-21T10:13:37;6.95;;;6.35;;
18322;SDS011;9287;49.456;11.064;2022-08-21T10:16:12;8.40;;;7.78;;
18322;SDS011;9287;49.456;11.064;2022-08-21T10:18:44;6.93;;;6.43;;
18322;SDS011;9287;49.456;11.064;2022-08-21T10:21:16;6.68;;;6.28;;
18322;SDS011;9287;49.456;11.064;2022-08-21T10:23:49;7.20;;;6.63;;
18322;SDS011;9287;49.456;11.064;2022-08-21T10:26:23;7.28;;;6.78;;
18322;SDS011;9287;49.456;11.064;2022-08-21T10:28:54;7.65;;;7.05;;
18322;SDS011;9287;49.456;11.064;2022-08-21T10:31:30;9.13;;;8.30;;
18322;SDS011;9287;49.456;11.064;2022-08-21T10:34:05;6.50;;;6.10;;
18322;SDS011;9287;49.456;11.064;2022-08-21T10:36:36;6.85;;;6.45;;
18322;SDS011;9287;49.456;11.064;2022-08-21T10:39:13;7.85;;;7.32;;
18322;SDS011;9287;49.456;11.064;2022-08-21T10:44:56;8.27;;;7.68;;
18322;SDS011;9287;49.456;11.064;2022-08-21T10:47:30;9.93;;;9.13;;
18322;SDS011;9287;49.456;11.064;2022-08-21T10:50:01;8.63;;;7.93;;
18322;SDS011;9287;49.456;11.064;2022-08-21T10:52:36;7.70;;;7.00;;
18322;SDS011;9287;49.456;11.064;2022-08-21T10:55:10;8.10;;;7.40;;
18322;SDS011;9287;49.456;11.064;2022-08-21T10:57:40;9.13;;;8.32;;
18322;SDS011;9287;49.456;11.064;2022-08-21T11:00:10;6.65;;;6.05;;
18322;SDS011;9287;49.456;11.064;2022-08-21T11:02:41;6.03;;;5.60;;
18322;SDS011;9287;49.456;11.064;2022-08-21T11:05:11;5.93;;;5.53;;
18322;SDS011;9287;49.456;11.064;2022-08-21T11:07:43;7.15;;;6.65;;
18322;SDS011;9287;49.456;11.064;2022-08-21T11:10:15;7.93;;;7.22;;
18322;SDS011;9287;49.456;11.064;2022-08-21T11:12:46;4.57;;;4.22;;
18322;SDS011;9287;49.456;11.064;2022-08-21T11:15:33;4.63;;;4.32;;
18322;SDS011;9287;49.456;11.064;2022-08-21T11:18:10;3.85;;;3.65;;
18322;SDS011;9287;49.456;11.064;2022-08-21T11:20:42;5.00;;;4.70;;
18322;SDS011;9287;49.456;11.064;2022-08-21T11:23:14;4.75;;;4.45;;
18322;SDS011;9287;49.456;11.064;2022-08-21T11:25:44;4.82;;;4.53;;
18322;SDS011;9287;49.456;11.064;2022-08-21T11:28:14;4.13;;;3.92;;
18322;SDS011;9287;49.456;11.064;2022-08-21T11:30:47;3.00;;;2.80;;
18322;SDS011;9287;49.456;11.064;2022-08-21T11:33:26;3.33;;;3.10;;
18322;SDS011;9287;49.456;11.064;2022-08-21T11:35:58;3.45;;;3.25;;
18322;SDS011;9287;49.456;11.064;2022-08-21T11:38:34;3.67;;;3.47;;
18322;SDS011;9287;49.456;11.064;2022-08-21T11:41:18;3.30;;;3.10;;
18322;SDS011;9287;49.456;11.064;2022-08-21T11:43:48;3.05;;;2.85;;
18322;SDS011;9287;49.456;11.064;2022-08-21T11:46:19;3.47;;;3.28;;
18322;SDS011;9287;49.456;11.064;2022-08-21T11:48:57;4.93;;;4.22;;
18322;SDS011;9287;49.456;11.064;2022-08-21T11:51:27;4.50;;;4.20;;
18322;SDS011;9287;49.456;11.064;2022-08-21T11:54:00;3.03;;;2.88;;
18322;SDS011;9287;49.456;11.064;2022-08-21T11:56:33;2.58;;;2.47;;
18322;SDS011;9287;49.456;11.064;2022-08-21T11:59:04;4.20;;;3.90;;
18322;SDS011;9287;49.456;11.064;2022-08-21T12:01:34;2.95;;;2.80;;
18322;SDS011;9287;49.456;11.064;2022-08-21T12:04:06;2.97;;;2.65;;
18322;SDS011;9287;49.456;11.064;2022-08-21T12:06:36;2.70;;;2.50;;
18322;SDS011;9287;49.456;11.064;2022-08-21T12:09:05;3.25;;;2.97;;
18322;SDS011;9287;49.456;11.064;2022-08-21T12:11:43;2.65;;;2.45;;
18322;SDS011;9287;49.456;11.064;2022-08-21T12:14:13;2.88;;;2.65;;
18322;SDS011;9287;49.456;11.064;2022-08-21T12:16:43;2.45;;;2.25;;
18322;SDS011;9287;49.456;11.064;2022-08-21T12:19:14;3.80;;;2.42;;
18322;SDS011;9287;49.456;11.064;2022-08-21T12:21:58;2.25;;;2.05;;
18322;SDS011;9287;49.456;11.064;2022-08-21T12:24:32;2.42;;;2.22;;
18322;SDS011;9287;49.456;11.064;2022-08-21T12:27:01;3.78;;;2.45;;
18322;SDS011;9287;49.456;11.064;2022-08-21T12:29:44;1.98;;;1.88;;
18322;SDS011;9287;49.456;11.064;2022-08-21T12:32:20;2.47;;;2.30;;
18322;SDS011;9287;49.456;11.064;2022-08-21T12:34:52;2.33;;;2.22;;
18322;SDS011;9287;49.456;11.064;2022-08-21T12:37:20;1.77;;;1.67;;
18322;SDS011;9287;49.456;11.064;2022-08-21T12:39:50;1.85;;;1.75;;
18322;SDS011;9287;49.456;11.064;2022-08-21T12:42:19;2.22;;;2.13;;
18322;SDS011;9287;49.456;11.064;2022-08-21T12:44:49;2.45;;;2.25;;
18322;SDS011;9287;49.456;11.064;2022-08-21T12:47:21;2.72;;;2.53;;
18322;SDS011;9287;49.456;11.064;2022-08-21T12:49:54;2.22;;;2.13;;
18322;SDS011;9287;49.456;11.064;2022-08-21T12:52:30;2.33;;;2.20;;
18322;SDS011;9287;49.456;11.064;2022-08-21T12:55:05;1.98;;;1.88;;
18322;SDS011;9287;49.456;11.064;2022-08-21T12:57:35;1.60;;;1.50;;
18322;SDS011;9287;49.456;11.064;2022-08-21T13:00:05;2.40;;;2.20;;
18322;SDS011;9287;49.456;11.064;2022-08-21T13:02:35;2.15;;;1.92;;
18322;SDS011;9287;49.456;11.064;2022-08-21T13:05:05;2.45;;;2.35;;
18322;SDS011;9287;49.456;11.064;2022-08-21T13:07:34;2.78;;;2.58;;
18322;SDS011;9287;49.456;11.064;2022-08-21T13:10:04;2.53;;;2.10;;
18322;SDS011;9287;49.456;11.064;2022-08-21T13:12:32;2.15;;;2.05;;
18322;SDS011;9287;49.456;11.064;2022-08-21T13:15:01;2.40;;;2.30;;
18322;SDS011;9287;49.456;11.064;2022-08-21T13:17:34;2.35;;;2.22;;
18322;SDS011;9287;49.456;11.064;2022-08-21T13:20:06;2.15;;;2.05;;
18322;SDS011;9287;49.456;11.064;2022-08-21T13:22:39;2.25;;;2.15;;
18322;SDS011;9287;49.456;11.064;2022-08-21T13:25:09;2.47;;;2.28;;
18322;SDS011;9287;49.456;11.064;2022-08-21T13:27:37;2.25;;;2.15;;
18322;SDS011;9287;49.456;11.064;2022-08-21T13:30:07;4.88;;;4.50;;
18322;SDS011;9287;49.456;11.064;2022-08-21T13:32:35;2.95;;;2.75;;
18322;SDS011;9287;49.456;11.064;2022-08-21T13:35:14;3.20;;;3.00;;
18322;SDS011;9287;49.456;11.064;2022-08-21T13:37:42;2.20;;;2.10;;
18322;SDS011;9287;49.456;11.064;2022-08-21T13:40:11;2.33;;;2.20;;
18322;SDS011;9287;49.456;11.064;2022-08-21T13:42:42;2.58;;;2.30;;
18322;SDS011;9287;49.456;11.064;2022-08-21T13:45:11;2.53;;;2.40;;
18322;SDS011;9287;49.456;11.064;2022-08-21T13:47:40;2.10;;;2.00;;
18322;SDS011;9287;49.456;11.064;2022-08-21T13:50:08;2.05;;;1.80;;
18322;SDS011;9287;49.456;11.064;2022-08-21T13:52:44;2.10;;;2.00;;
18322;SDS011;9287;49.456;11.064;2022-08-21T13:55:15;1.95;;;1.85;;
18322;SDS011;9287;49.456;11.064;2022-08-21T13:57:43;3.00;;;2.80;;
18322;SDS011;9287;49.456;11.064;2022-08-21T14:00:11;1.83;;;1.73;;
18322;SDS011;9287;49.456;11.064;2022-08-21T14:02:40;2.70;;;2.50;;
18322;SDS011;9287;49.456;11.064;2022-08-21T14:05:14;2.20;;;1.85;;
18322;SDS011;9287;49.456;11.064;2022-08-21T14:07:44;2.28;;;1.85;;
18322;SDS011;9287;49.456;11.064;2022-08-21T14:10:14;1.60;;;1.50;;
18322;SDS011;9287;49.456;11.064;2022-08-21T14:12:43;2.03;;;1.60;;
18322;SDS011;9287;49.456;11.064;2022-08-21T14:15:12;1.90;;;1.80;;
18322;SDS011;9287;49.456;11.064;2022-08-21T14:17:40;2.25;;;2.15;;
18322;SDS011;9287;49.456;11.064;2022-08-21T14:20:09;2.55;;;2.05;;
18322;SDS011;9287;49.456;11.064;2022-08-21T14:22:38;2.13;;;1.50;;
18322;SDS011;9287;49.456;11.064;2022-08-21T14:25:08;1.85;;;1.75;;
18322;SDS011;9287;49.456;11.064;2022-08-21T14:27:38;1.90;;;1.80;;
18322;SDS011;9287;49.456;11.064;2022-08-21T14:30:09;1.88;;;1.77;;
18322;SDS011;9287;49.456;11.064;2022-08-21T14:32:40;1.95;;;1.85;;
18322;SDS011;9287;49.456;11.064;2022-08-21T14:35:11;1.75;;;1.65;;
18322;SDS011;9287;49.456;11.064;2022-08-21T14:37:41;1.95;;;1.80;;
18322;SDS011;9287;49.456;11.064;2022-08-21T14:40:10;1.90;;;1.80;;
18322;SDS011;9287;49.456;11.064;2022-08-21T14:42:39;2.65;;;2.45;;
18322;SDS011;9287;49.456;11.064;2022-08-21T14:45:10;5.28;;;2.20;;
18322;SDS011;9287;49.456;11.064;2022-08-21T14:47:39;2.20;;;2.10;;
18322;SDS011;9287;49.456;11.064;2022-08-21T14:50:07;2.47;;;1.85;;
18322;SDS011;9287;49.456;11.064;2022-08-21T14:52:35;2.65;;;1.92;;
18322;SDS011;9287;49.456;11.064;2022-08-21T14:55:03;2.08;;;1.42;;
18322;SDS011;9287;49.456;11.064;2022-08-21T14:57:32;1.90;;;1.80;;